Time;durP1;ratioP1;P1;durP2;ratioP2;P2;SDS_P1;SDS_P2;PMS_P1;PMS_P2;Temp;Humidity;BMP_temperature;BMP_pressure;BME280_temperature;BME280_humidity;BME280_pressure;Samples;Min_cycle;Max_cycle;Signal;HPM_P1;HPM_P2
2022/12/02 00:01:13;;;;;;;24.83;10.82;;;;;;;3.70;100.00;99207.53;5023809;28;20037;-75
2022/12/02 00:03:39;;;;;;;24.92;11.82;;;;;;;3.75;100.00;99201.75;5022445;28;20036;-75
2022/12/02 00:06:18;;;;;;;22.73;11.15;;;;;;;3.68;100.00;99187.28;5025135;28;20797;-74
2022/12/02 00:08:43;;;;;;;22.83;11.60;;;;;;;3.79;100.00;99196.91;5026529;28;20063;-75
2022/12/02 00:11:30;;;;;;;25.38;10.98;;;;;;;3.70;100.00;99183.44;5025227;28;20291;-74
2022/12/02 00:14:01;;;;;;;26.35;11.10;;;;;;;3.80;100.00;99177.19;5023819;28;20033;-74
2022/12/02 00:16:26;;;;;;;29.58;10.90;;;;;;;3.83;100.00;99199.16;5021972;28;20026;-75
2022/12/02 00:18:53;;;;;;;24.58;11.05;;;;;;;3.82;100.00;99191.25;5026670;28;20080;-74
2022/12/02 00:21:19;;;;;;;23.95;10.98;;;;;;;3.65;100.00;99169.69;5026506;28;20059;-74
2022/12/02 00:23:45;;;;;;;22.45;11.10;;;;;;;3.82;100.00;99185.91;5026858;28;20093;-74
2022/12/02 00:26:10;;;;;;;25.70;10.95;;;;;;;3.75;100.00;99174.97;5024577;28;20029;-75
2022/12/02 00:28:36;;;;;;;24.98;10.85;;;;;;;3.85;100.00;99185.59;5025751;28;20471;-75
2022/12/02 00:31:01;;;;;;;26.63;11.82;;;;;;;3.85;100.00;99186.47;5026481;28;20029;-74
2022/12/02 00:33:27;;;;;;;26.63;11.82;;;;;;;3.83;100.00;99174.22;5027713;28;20391;-74
2022/12/02 00:35:52;;;;;;;27.33;11.35;;;;;;;3.71;100.00;99163.72;5026983;28;20025;-74
2022/12/02 00:38:17;;;;;;;25.77;11.23;;;;;;;3.77;100.00;99172.13;5024530;28;20633;-74
2022/12/02 00:40:43;;;;;;;29.02;12.35;;;;;;;3.59;100.00;99151.56;5023999;28;20479;-74
2022/12/02 00:48:36;;;;;;;25.77;10.60;;;;;;;3.66;100.00;99157.97;5027534;28;20502;-75
2022/12/02 00:51:02;;;;;;;23.75;11.43;;;;;;;3.76;100.00;99175.81;5026294;28;20033;-74
2022/12/02 00:53:28;;;;;;;25.27;11.63;;;;;;;3.73;100.00;99172.44;5025458;28;20190;-75
2022/12/02 00:55:53;;;;;;;22.92;10.05;;;;;;;3.79;100.00;99175.50;5027076;28;20026;-75
2022/12/02 00:58:18;;;;;;;23.75;11.02;;;;;;;3.65;100.00;99153.63;5030573;28;20047;-75
2022/12/02 01:00:44;;;;;;;23.58;11.15;;;;;;;3.52;100.00;99126.41;5031383;28;20029;-75
2022/12/02 01:03:09;;;;;;;27.40;11.70;;;;;;;3.66;100.00;99157.13;5035929;28;20036;-75
2022/12/02 01:05:35;;;;;;;24.63;11.40;;;;;;;3.49;100.00;99142.75;5027096;28;20663;-75
2022/12/02 01:08:00;;;;;;;24.00;11.48;;;;;;;3.56;100.00;99153.69;5022530;28;20117;-75
2022/12/02 01:10:25;;;;;;;23.08;10.85;;;;;;;3.53;100.00;99138.78;5029649;28;20463;-75
2022/12/02 01:12:51;;;;;;;24.30;10.50;;;;;;;3.68;100.00;99147.13;5027422;28;20478;-76
2022/12/02 01:15:16;;;;;;;23.02;10.73;;;;;;;3.59;100.00;99138.19;5030239;28;20026;-75
2022/12/02 01:17:41;;;;;;;19.00;9.98;;;;;;;3.57;100.00;99137.50;5029077;28;20037;-75
2022/12/02 01:20:07;;;;;;;30.48;12.18;;;;;;;3.51;100.00;99130.91;5029273;28;20032;-75
2022/12/02 01:22:33;;;;;;;22.27;10.00;;;;;;;3.56;100.00;99119.75;5028146;28;20068;-75
2022/12/02 01:24:58;;;;;;;21.27;11.00;;;;;;;3.56;100.00;99133.13;5028253;28;20537;-75
2022/12/02 01:27:23;;;;;;;22.75;10.27;;;;;;;3.47;100.00;99126.84;5023721;28;20034;-75
2022/12/02 01:29:49;;;;;;;26.63;11.45;;;;;;;3.58;100.00;99136.47;5031035;28;20075;-75
2022/12/02 01:32:14;;;;;;;23.50;11.45;;;;;;;3.62;100.00;99132.53;5023628;28;20047;-76
2022/12/02 01:34:41;;;;;;;23.20;10.48;;;;;;;3.54;100.00;99124.41;5030008;28;20033;-76
2022/12/02 01:37:06;;;;;;;20.88;10.27;;;;;;;3.53;100.00;99116.53;5028378;28;20505;-75
2022/12/02 01:39:32;;;;;;;28.10;11.30;;;;;;;3.51;100.00;99119.34;5029560;28;20033;-75
2022/12/02 01:41:57;;;;;;;26.83;11.30;;;;;;;3.58;100.00;99119.59;5028089;28;20018;-76
2022/12/02 01:44:22;;;;;;;20.30;9.73;;;;;;;3.57;100.00;99112.56;5027082;28;20033;-75
2022/12/02 01:46:48;;;;;;;27.23;11.13;;;;;;;3.53;100.00;99113.84;5027923;28;20065;-75
2022/12/02 01:49:13;;;;;;;27.98;10.15;;;;;;;3.46;100.00;99113.63;5028537;28;20021;-75
2022/12/02 01:51:39;;;;;;;19.70;10.20;;;;;;;3.45;100.00;99119.97;5029290;28;20048;-75
2022/12/02 01:54:04;;;;;;;23.95;11.15;;;;;;;3.44;100.00;99113.78;5027693;28;20037;-75
2022/12/02 01:56:29;;;;;;;24.90;10.57;;;;;;;3.49;100.00;99126.72;5029607;28;20025;-76
2022/12/02 01:58:55;;;;;;;25.42;11.27;;;;;;;3.50;100.00;99128.38;5028602;28;20030;-75
2022/12/02 02:01:26;;;;;;;23.60;11.20;;;;;;;3.58;100.00;99136.47;5037109;28;20047;-75
2022/12/02 02:03:52;;;;;;;25.20;11.48;;;;;;;3.53;100.00;99140.59;5016673;28;20041;-75
2022/12/02 02:06:17;;;;;;;26.70;11.20;;;;;;;3.36;100.00;99111.00;5025952;28;20030;-75
2022/12/02 02:08:42;;;;;;;25.98;11.27;;;;;;;3.34;100.00;99114.81;5028930;28;20037;-76
2022/12/02 02:11:08;;;;;;;22.60;11.05;;;;;;;3.40;100.00;99116.88;5027303;28;20398;-74
2022/12/02 02:13:33;;;;;;;23.40;10.48;;;;;;;3.42;100.00;99123.78;5029113;28;20082;-75
2022/12/02 02:15:58;;;;;;;22.00;10.85;;;;;;;3.32;100.00;99104.25;5025588;28;20036;-74
2022/12/02 02:18:24;;;;;;;25.58;11.25;;;;;;;3.38;100.00;99122.41;5023462;28;20049;-74
2022/12/02 02:20:50;;;;;;;22.77;11.05;;;;;;;3.37;100.00;99112.69;5020722;28;20398;-74
2022/12/02 02:23:15;;;;;;;25.70;11.57;;;;;;;3.49;100.00;99129.38;5029868;28;20025;-74
2022/12/02 02:25:50;;;;;;;26.38;10.48;;;;;;;3.40;100.00;99112.38;5027039;28;20021;-75
2022/12/02 02:28:15;;;;;;;24.75;10.50;;;;;;;3.43;100.00;99116.59;5025960;28;20044;-74
2022/12/02 02:30:41;;;;;;;22.58;10.57;;;;;;;3.38;100.00;99106.38;5028492;28;20026;-75
2022/12/02 02:33:09;;;;;;;29.48;12.23;;;;;;;3.27;100.00;99098.53;5030669;28;20115;-76
2022/12/02 02:35:36;;;;;;;24.42;12.45;;;;;;;3.41;100.00;99113.25;5028919;28;20032;-76
2022/12/02 02:38:04;;;;;;;24.75;11.35;;;;;;;3.37;100.00;99106.50;5029811;28;20099;-74
2022/12/02 02:40:37;;;;;;;28.63;11.65;;;;;;;3.47;100.00;99123.34;5027124;28;20033;-74
2022/12/02 02:43:03;;;;;;;29.27;12.35;;;;;;;3.45;100.00;99111.94;5023496;28;20117;-77
2022/12/02 02:45:32;;;;;;;27.42;12.23;;;;;;;3.43;100.00;99104.06;5026093;28;20156;-74
2022/12/02 02:47:58;;;;;;;22.77;11.43;;;;;;;3.34;100.00;99090.75;5028271;28;20048;-74
2022/12/02 02:50:25;;;;;;;26.48;12.27;;;;;;;3.42;100.00;99099.69;5029649;28;20034;-75
2022/12/02 02:52:51;;;;;;;27.95;12.40;;;;;;;3.40;100.00;99101.69;5024040;28;20025;-74
2022/12/02 02:55:23;;;;;;;26.10;11.30;;;;;;;3.47;100.00;99109.97;5025497;28;20036;-74
2022/12/02 02:57:49;;;;;;;22.17;10.82;;;;;;;3.47;100.00;99102.75;5027132;28;20025;-74
2022/12/02 03:00:16;;;;;;;22.42;11.20;;;;;;;3.57;100.00;99096.53;5029630;28;20052;-73
2022/12/02 03:02:45;;;;;;;25.75;11.77;;;;;;;3.47;100.00;99096.59;5024703;28;20029;-74
2022/12/02 03:05:11;;;;;;;22.55;11.48;;;;;;;3.57;100.00;99108.06;5016460;28;20053;-72
2022/12/02 03:07:37;;;;;;;22.27;10.40;;;;;;;3.31;100.00;99061.66;5027860;28;20134;-74
2022/12/02 03:10:04;;;;;;;24.17;11.68;;;;;;;3.58;100.00;99103.53;5027751;28;20518;-74
2022/12/02 03:12:30;;;;;;;26.83;12.15;;;;;;;3.55;100.00;99101.19;5016642;28;20040;-74
2022/12/02 03:14:56;;;;;;;29.67;11.32;;;;;;;3.57;100.00;99088.50;5022782;28;20391;-75
2022/12/02 03:17:21;;;;;;;21.90;10.77;;;;;;;3.63;100.00;99083.38;5028625;28;20022;-74
2022/12/02 03:19:47;;;;;;;22.27;11.25;;;;;;;3.60;100.00;99081.00;5027301;28;20020;-74
2022/12/02 03:22:12;;;;;;;27.65;12.00;;;;;;;3.66;100.00;99090.25;5025632;28;20040;-74
2022/12/02 03:24:38;;;;;;;22.23;10.43;;;;;;;3.69;100.00;99080.09;5024583;28;20022;-75
2022/12/02 03:27:05;;;;;;;27.65;10.88;;;;;;;3.77;100.00;99095.38;5008043;28;20028;-74
2022/12/02 03:29:32;;;;;;;23.77;10.60;;;;;;;3.64;100.00;99068.16;5015863;28;20029;-74
2022/12/02 03:31:59;;;;;;;23.70;11.60;;;;;;;3.73;100.00;99094.84;5030371;28;20391;-74
2022/12/02 03:34:25;;;;;;;21.50;9.93;;;;;;;3.66;100.00;99072.34;5026866;28;20487;-74
2022/12/02 03:36:50;;;;;;;20.92;10.25;;;;;;;3.56;100.00;99068.06;5027909;28;20091;-74
2022/12/02 03:39:16;;;;;;;29.45;10.63;;;;;;;3.59;100.00;99063.28;5028198;28;20368;-74
2022/12/02 03:41:42;;;;;;;25.00;11.10;;;;;;;3.53;100.00;99073.72;5023902;28;20025;-74
2022/12/02 03:44:08;;;;;;;24.58;10.80;;;;;;;3.48;100.00;99060.81;5026544;28;20105;-75
2022/12/02 03:46:33;;;;;;;26.63;11.07;;;;;;;3.51;100.00;99066.72;5029454;28;20061;-73
2022/12/02 03:49:00;;;;;;;22.63;11.18;;;;;;;3.51;100.00;99073.88;5024736;28;20079;-74
2022/12/02 03:51:26;;;;;;;23.52;11.20;;;;;;;3.57;100.00;99075.97;5017868;28;20025;-73
2022/12/02 03:53:52;;;;;;;22.98;10.63;;;;;;;3.59;100.00;99090.03;5025603;28;20035;-75
2022/12/02 03:56:17;;;;;;;26.33;11.52;;;;;;;3.56;100.00;99084.13;5028152;28;20032;-76
2022/12/02 03:58:50;;;;;;;25.35;12.07;;;;;;;3.47;100.00;99069.84;5026381;28;20658;-73
2022/12/02 04:01:19;;;;;;;25.38;12.15;;;;;;;3.43;100.00;99057.75;5024451;28;20033;-74
2022/12/02 04:03:44;;;;;;;30.85;12.40;;;;;;;3.54;100.00;99068.25;5025973;28;20491;-75
2022/12/02 04:06:10;;;;;;;26.83;11.73;;;;;;;3.49;100.00;99055.31;5028279;28;20083;-75
2022/12/02 04:08:36;;;;;;;27.08;11.88;;;;;;;3.51;100.00;99057.81;5027632;28;20073;-75
2022/12/02 04:11:01;;;;;;;27.33;11.95;;;;;;;3.53;100.00;99052.34;5022913;28;20498;-74
2022/12/02 04:13:27;;;;;;;28.38;11.48;;;;;;;3.57;100.00;99049.22;5028388;28;20029;-77
2022/12/02 04:15:52;;;;;;;27.08;12.82;;;;;;;3.54;100.00;99048.66;5027021;28;20380;-73
2022/12/02 04:18:17;;;;;;;26.02;11.45;;;;;;;3.63;100.00;99061.97;5029722;28;20053;-74
2022/12/02 04:20:43;;;;;;;27.90;12.25;;;;;;;3.55;100.00;99037.81;5020908;28;20112;-74
2022/12/02 04:23:08;;;;;;;31.63;12.85;;;;;;;3.68;100.00;99050.81;5025369;28;20503;-74
2022/12/02 04:25:34;;;;;;;27.88;12.30;;;;;;;3.65;100.00;99027.88;5025485;28;20538;-74
2022/12/02 04:27:59;;;;;;;26.85;11.82;;;;;;;3.58;100.00;99034.00;5028699;28;20064;-76
2022/12/02 04:30:24;;;;;;;28.30;11.73;;;;;;;3.65;100.00;99025.19;5026571;28;20029;-73
2022/12/02 04:32:50;;;;;;;29.75;12.70;;;;;;;3.63;100.00;99021.00;5031330;28;20021;-74
2022/12/02 04:35:15;;;;;;;27.70;12.23;;;;;;;3.71;100.00;99029.94;5031064;28;20033;-75
2022/12/02 04:37:41;;;;;;;31.70;12.32;;;;;;;3.73;100.00;99041.31;5032393;28;20037;-74
2022/12/02 04:40:06;;;;;;;29.85;12.45;;;;;;;3.66;100.00;99021.53;5025062;28;20033;-74
2022/12/02 04:42:32;;;;;;;29.33;12.77;;;;;;;3.68;100.00;99032.91;5029081;28;20029;-75
2022/12/02 04:44:57;;;;;;;28.75;12.18;;;;;;;3.64;100.00;99025.34;5032042;28;20095;-75
2022/12/02 04:47:22;;;;;;;27.70;11.98;;;;;;;3.63;100.00;99037.88;5038917;28;20029;-76
2022/12/02 04:49:48;;;;;;;29.75;12.07;;;;;;;3.64;100.00;99044.94;5042757;28;20030;-75
2022/12/02 04:52:14;;;;;;;29.27;12.82;;;;;;;3.61;100.00;99041.72;5043349;28;20089;-75
2022/12/02 04:54:39;;;;;;;30.33;11.95;;;;;;;3.63;100.00;99051.25;5037166;28;20025;-74
2022/12/02 04:57:05;;;;;;;27.67;12.45;;;;;;;3.56;100.00;99035.97;5034665;28;20422;-78
2022/12/02 04:59:30;;;;;;;24.80;12.40;;;;;;;3.66;100.00;99032.22;5034000;28;20529;-82
2022/12/02 05:01:55;;;;;;;31.13;12.35;;;;;;;3.59;100.00;99041.00;5038339;28;20025;-83
2022/12/02 05:04:21;;;;;;;27.70;12.68;;;;;;;3.63;100.00;99032.53;5040033;28;20025;-85
2022/12/02 05:06:46;;;;;;;25.98;11.80;;;;;;;3.56;100.00;99031.47;5039417;28;20045;-84
2022/12/02 05:09:11;;;;;;;29.27;11.50;;;;;;;3.65;100.00;99043.09;5037011;28;20029;-80
2022/12/02 05:11:37;;;;;;;24.05;11.82;;;;;;;3.47;100.00;99014.50;5031273;28;20034;-81
2022/12/02 05:14:04;;;;;;;25.40;11.25;;;;;;;3.55;100.00;99027.13;5038196;28;20084;-77
2022/12/02 05:16:30;;;;;;;24.25;11.38;;;;;;;3.62;100.00;99041.56;5031728;28;20115;-77
2022/12/02 05:18:55;;;;;;;26.60;12.80;;;;;;;3.55;100.00;99035.13;5035972;28;20083;-82
2022/12/02 05:21:20;;;;;;;28.00;12.25;;;;;;;3.55;100.00;99045.00;5043181;28;20107;-79
2022/12/02 05:23:46;;;;;;;28.75;12.93;;;;;;;3.44;100.00;99033.53;5036317;28;20025;-80
2022/12/02 05:26:11;;;;;;;27.45;12.35;;;;;;;3.41;100.00;99027.66;5037061;28;20021;-82
2022/12/02 05:28:36;;;;;;;31.63;12.50;;;;;;;3.29;100.00;99003.78;5037593;28;20052;-84
2022/12/02 05:31:04;;;;;;;26.17;12.13;;;;;;;3.43;100.00;99034.53;5038227;28;20049;-83
2022/12/02 05:33:29;;;;;;;26.75;11.85;;;;;;;3.41;100.00;99033.84;5042305;28;20043;-81
2022/12/02 05:35:55;;;;;;;27.20;11.32;;;;;;;3.46;100.00;99049.44;5037850;28;20037;-82
2022/12/02 05:38:20;;;;;;;33.17;13.38;;;;;;;3.45;100.00;99050.41;5041975;28;20041;-83
2022/12/02 05:40:45;;;;;;;26.60;12.07;;;;;;;3.23;100.00;99004.41;5036199;28;20040;-82
2022/12/02 05:43:17;;;;;;;27.58;12.25;;;;;;;3.46;100.00;99025.38;5046827;28;20021;-82
2022/12/02 05:45:42;;;;;;;27.25;11.50;;;;;;;3.49;100.00;99033.91;5035272;28;20526;-87
2022/12/02 05:48:13;;;;;;;30.67;12.70;;;;;;;3.47;100.00;99037.75;5031571;28;20036;-82
2022/12/02 05:50:40;;;;;;;25.73;12.63;;;;;;;3.52;100.00;99048.81;5034818;28;20021;-81
2022/12/02 05:53:09;;;;;;;30.10;12.75;;;;;;;3.45;100.00;99043.22;5032403;28;20491;-84
2022/12/02 05:55:35;;;;;;;26.13;11.52;;;;;;;3.45;100.00;99021.81;5035972;28;20033;-77
2022/12/02 06:08:29;;;;;;;29.38;12.80;;;;;;;3.44;100.00;99033.53;5026248;28;20558;-75
2022/12/02 06:17:39;;;;;;;24.13;11.25;;;;;;;3.34;100.00;99043.47;5033625;28;20047;-85
2022/12/02 06:20:05;;;;;;;27.27;11.55;;;;;;;3.20;100.00;99019.94;5035322;28;20092;-86
2022/12/02 06:22:33;;;;;;;29.80;12.80;;;;;;;3.22;100.00;99032.16;5033402;28;20028;-79
2022/12/02 06:25:17;;;;;;;28.63;12.27;;;;;;;3.06;100.00;99005.22;5032202;28;20071;-79
2022/12/02 06:27:42;;;;;;;28.30;12.02;;;;;;;3.04;100.00;98999.22;5027109;28;20075;-78
2022/12/02 06:30:13;;;;;;;26.77;12.15;;;;;;;3.27;100.00;99035.22;5030249;28;20025;-78
2022/12/02 06:32:47;;;;;;;28.92;12.18;;;;;;;3.43;100.00;99044.38;5024905;28;20041;-78
2022/12/02 06:35:19;;;;;;;31.73;12.63;;;;;;;2.82;100.00;98950.50;5028380;28;20033;-77
2022/12/02 06:37:45;;;;;;;29.38;13.30;;;;;;;3.13;100.00;99006.31;5024833;28;21201;-78
2022/12/02 06:40:32;;;;;;;29.73;12.95;;;;;;;3.37;100.00;99037.81;5022210;28;20030;-79
2022/12/02 06:43:00;;;;;;;29.38;11.85;;;;;;;3.24;100.00;99019.44;5026614;28;20116;-79
2022/12/02 06:46:12;;;;;;;25.60;11.27;;;;;;;3.36;100.00;99025.44;5025805;28;20033;-89
2022/12/02 06:48:39;;;;;;;32.13;12.07;;;;;;;3.26;100.00;99021.97;5036329;28;20029;-85
2022/12/02 06:51:19;;;;;;;25.63;12.00;;;;;;;3.38;100.00;99038.63;5037493;28;20029;-80
2022/12/02 06:53:45;;;;;;;30.52;12.68;;;;;;;3.32;100.00;99025.88;5033280;28;20030;-75
2022/12/02 06:56:18;;;;;;;28.25;11.82;;;;;;;3.25;100.00;99021.16;5029483;28;20100;-79
2022/12/02 06:58:46;;;;;;;26.63;12.30;;;;;;;3.27;100.00;99029.88;5024131;28;20033;-76
2022/12/02 07:01:37;;;;;;;23.95;12.18;;;;;;;3.37;100.00;99036.97;5028239;28;20033;-77
2022/12/02 07:04:21;;;;;;;27.30;12.32;;;;;;;3.26;100.00;99024.66;5023761;28;20052;-77
2022/12/02 07:06:50;;;;;;;23.40;11.57;;;;;;;3.39;100.00;99046.50;5030151;28;20622;-77
2022/12/02 07:09:21;;;;;;;27.58;11.88;;;;;;;3.36;100.00;99025.44;5029964;28;20029;-74
2022/12/02 07:11:49;;;;;;;28.38;11.70;;;;;;;3.21;100.00;99009.06;5026372;28;20037;-74
2022/12/02 07:14:20;;;;;;;28.70;11.45;;;;;;;3.40;100.00;99039.31;5025768;28;20037;-75
2022/12/02 07:16:48;;;;;;;26.88;11.73;;;;;;;3.38;100.00;99027.94;5027702;28;20048;-74
2022/12/02 07:19:23;;;;;;;27.83;12.45;;;;;;;3.34;100.00;99032.75;5020411;28;20029;-75
2022/12/02 07:21:48;;;;;;;27.40;11.90;;;;;;;3.43;100.00;99031.00;5027353;28;20423;-81
2022/12/02 07:24:17;;;;;;;30.25;12.57;;;;;;;3.27;100.00;99024.53;5020160;28;20182;-75
2022/12/02 07:26:45;;;;;;;25.33;11.10;;;;;;;3.42;100.00;99048.06;5017900;28;20537;-75
2022/12/02 07:29:19;;;;;;;29.23;11.98;;;;;;;3.43;100.00;99052.41;5020115;28;20025;-74
2022/12/02 07:31:45;;;;;;;23.67;11.32;;;;;;;3.36;100.00;99032.63;5024038;28;20485;-75
2022/12/02 07:34:12;;;;;;;27.63;11.30;;;;;;;3.37;100.00;99026.25;5026951;28;20449;-75
2022/12/02 07:36:37;;;;;;;26.30;11.40;;;;;;;3.33;100.00;99031.09;5028237;28;20376;-74
2022/12/02 07:39:03;;;;;;;30.48;12.15;;;;;;;3.33;100.00;99017.72;5026985;28;20022;-75
2022/12/02 07:41:28;;;;;;;25.60;12.40;;;;;;;3.36;100.00;99016.56;5026510;28;20433;-74
2022/12/02 07:43:53;;;;;;;23.85;11.90;;;;;;;3.49;100.00;99035.75;5027590;28;20025;-74
2022/12/02 07:46:19;;;;;;;29.10;12.02;;;;;;;3.44;100.00;99038.88;5028721;28;20445;-74
2022/12/02 07:48:44;;;;;;;24.83;11.38;;;;;;;3.35;100.00;99014.88;5034613;28;20041;-75
2022/12/02 07:51:09;;;;;;;26.63;12.05;;;;;;;3.37;100.00;99028.94;5026664;28;20036;-78
2022/12/02 07:53:35;;;;;;;26.08;11.48;;;;;;;3.36;100.00;99032.63;5028897;28;20483;-76
2022/12/02 07:56:00;;;;;;;29.17;12.82;;;;;;;3.43;100.00;99022.97;5027866;28;20032;-77
2022/12/02 07:58:26;;;;;;;29.98;12.70;;;;;;;3.34;100.00;99016.72;5027779;28;20036;-74
2022/12/02 08:00:51;;;;;;;31.80;11.05;;;;;;;3.38;100.00;99020.78;5030534;28;20561;-75
2022/12/02 08:03:17;;;;;;;32.40;13.70;;;;;;;3.38;100.00;99022.59;5025796;28;20095;-75
2022/12/02 08:05:42;;;;;;;34.65;16.10;;;;;;;3.31;100.00;99008.16;5026064;28;20622;-75
2022/12/02 08:08:07;;;;;;;32.85;14.02;;;;;;;3.38;100.00;99023.44;5027046;28;20059;-74
2022/12/02 08:10:33;;;;;;;37.85;15.50;;;;;;;3.59;100.00;99031.19;5027036;28;20568;-75
2022/12/02 08:12:58;;;;;;;33.53;14.80;;;;;;;3.50;100.00;99027.56;5028279;28;20017;-74
2022/12/02 08:15:23;;;;;;;31.95;15.18;;;;;;;3.51;100.00;99033.75;5029623;28;20030;-78
2022/12/02 08:17:48;;;;;;;27.88;12.73;;;;;;;3.54;100.00;99033.47;5028949;28;20029;-77
2022/12/02 08:20:14;;;;;;;30.48;12.98;;;;;;;3.41;100.00;99027.66;5026673;28;20705;-76
2022/12/02 08:22:39;;;;;;;24.98;12.30;;;;;;;3.39;100.00;99024.28;5028805;28;20021;-75
2022/12/02 08:25:05;;;;;;;24.35;11.27;;;;;;;3.43;100.00;99036.34;5029809;28;20026;-76
2022/12/02 08:27:31;;;;;;;20.52;9.68;;;;;;;3.47;100.00;99033.22;5023874;28;20033;-76
2022/12/02 08:29:57;;;;;;;19.67;10.43;;;;;;;3.55;100.00;99029.78;5021919;28;20017;-76
2022/12/02 08:32:22;;;;;;;23.58;11.15;;;;;;;3.37;100.00;99020.91;5025912;28;20082;-75
2022/12/02 08:34:47;;;;;;;21.80;9.38;;;;;;;3.24;100.00;99000.72;5027693;28;20045;-77
2022/12/02 08:37:13;;;;;;;21.25;10.50;;;;;;;3.48;100.00;99034.06;5029507;28;20123;-70
2022/12/02 08:39:39;;;;;;;20.90;9.65;;;;;;;3.45;100.00;99023.66;5021726;28;20038;-72
2022/12/02 08:42:05;;;;;;;18.48;9.55;;;;;;;3.36;100.00;99013.91;5024958;28;20029;-83
2022/12/02 08:44:31;;;;;;;20.02;9.95;;;;;;;3.38;100.00;99009.22;5035308;28;20030;-83
2022/12/02 08:46:57;;;;;;;19.77;9.25;;;;;;;3.35;100.00;99017.56;5029035;28;20072;-85
2022/12/02 08:49:22;;;;;;;19.27;8.98;;;;;;;3.34;100.00;99007.84;5028625;28;20418;-77
2022/12/02 08:51:48;;;;;;;20.65;9.32;;;;;;;3.35;100.00;99012.19;5031901;28;20551;-76
2022/12/02 08:54:14;;;;;;;20.85;9.27;;;;;;;3.38;100.00;99014.56;5027725;28;20042;-77
2022/12/02 08:56:40;;;;;;;19.33;8.82;;;;;;;3.26;100.00;98987.22;5025579;28;20384;-75
2022/12/02 08:59:05;;;;;;;19.95;9.35;;;;;;;3.39;100.00;99013.59;5032864;28;20025;-80
2022/12/02 09:01:30;;;;;;;21.67;8.80;;;;;;;3.42;100.00;99015.97;5026405;28;20025;-77
2022/12/02 09:03:56;;;;;;;16.73;8.45;;;;;;;3.34;100.00;99011.38;5027156;28;20479;-74
2022/12/02 09:06:21;;;;;;;17.13;8.85;;;;;;;3.35;100.00;99005.00;5026159;28;20064;-81
2022/12/02 09:08:46;;;;;;;19.73;8.38;;;;;;;3.41;100.00;99014.28;5033351;28;20116;-78
2022/12/02 09:11:12;;;;;;;15.80;7.60;;;;;;;3.43;100.00;99014.94;5028226;28;20124;-74
2022/12/02 09:13:37;;;;;;;16.17;8.65;;;;;;;3.37;100.00;98991.50;5018229;28;20128;-78
2022/12/02 09:16:04;;;;;;;15.88;7.68;;;;;;;3.54;100.00;98998.69;5030655;28;20072;-82
2022/12/02 09:18:29;;;;;;;15.80;7.63;;;;;;;3.53;100.00;98988.97;5030404;28;20086;-77
2022/12/02 09:20:54;;;;;;;16.00;7.28;;;;;;;3.59;100.00;99009.78;5030348;28;20034;-75
2022/12/02 09:23:20;;;;;;;18.52;8.15;;;;;;;3.64;100.00;99007.47;5033847;28;20624;-77
2022/12/02 09:25:45;;;;;;;22.58;8.82;;;;;;;3.64;100.00;99007.47;5036525;28;20513;-83
2022/12/02 09:28:10;;;;;;;21.42;9.50;;;;;;;3.57;100.00;98993.03;5036513;28;20063;-81
2022/12/02 09:30:37;;;;;;;26.75;11.60;;;;;;;3.54;100.00;98974.63;5035316;28;20029;-84
2022/12/02 09:33:02;;;;;;;24.52;11.82;;;;;;;3.69;100.00;98990.94;5036761;28;20116;-84
2022/12/02 09:35:28;;;;;;;16.45;8.30;;;;;;;3.67;100.00;99004.50;5025780;28;20116;-78
2022/12/02 09:37:56;;;;;;;16.75;7.70;;;;;;;3.58;100.00;98986.66;5036533;28;20730;-79
2022/12/02 09:40:22;;;;;;;16.17;8.00;;;;;;;3.72;100.00;99010.22;5028003;28;20079;-76
2022/12/02 09:42:47;;;;;;;15.52;7.63;;;;;;;3.64;100.00;99004.81;5036509;28;20026;-74
2022/12/02 09:45:14;;;;;;;14.80;7.53;;;;;;;3.70;100.00;99003.34;5031769;28;20036;-80
2022/12/02 09:47:39;;;;;;;20.25;9.75;;;;;;;3.59;100.00;98980.34;5036092;28;20116;-84
2022/12/02 09:50:05;;;;;;;15.25;7.88;;;;;;;3.69;100.00;98993.63;5033830;28;20178;-80
2022/12/02 09:52:31;;;;;;;15.85;7.57;;;;;;;3.69;100.00;98975.75;5032242;28;20036;-78
2022/12/02 09:55:02;;;;;;;14.38;7.72;;;;;;;3.88;100.00;99004.16;5028899;28;20112;-84
2022/12/02 09:57:30;;;;;;;17.10;7.75;;;;;;;3.94;100.00;98992.81;5036324;28;20029;-78
2022/12/02 10:00:03;;;;;;;16.02;7.00;;;;;;;4.05;100.00;98994.41;5034173;28;20109;-82
2022/12/02 10:02:32;;;;;;;12.70;6.70;;;;;;;4.13;100.00;98991.75;5032811;28;20035;-72
2022/12/02 10:05:03;;;;;;;13.73;6.28;;;;;;;4.09;100.00;98978.88;5028394;28;20120;-73
2022/12/02 10:07:28;;;;;;;11.98;6.03;;;;;;;4.08;100.00;98977.19;5025919;28;20462;-71
2022/12/02 10:09:54;;;;;;;14.27;6.22;;;;;;;3.95;100.00;98964.19;5028314;28;20025;-71
2022/12/02 10:12:19;;;;;;;13.57;6.30;;;;;;;4.21;100.00;98984.78;5031248;28;20091;-77
2022/12/02 10:14:49;;;;;;;12.15;6.07;;;;;;;4.15;100.00;98971.03;5029969;28;20033;-79
2022/12/02 10:17:20;;;;;;;12.05;5.88;;;;;;;4.15;100.00;98948.78;5035063;28;20029;-78
2022/12/02 10:19:46;;;;;;;10.98;5.95;;;;;;;4.43;100.00;98981.56;5048248;28;20075;-79
2022/12/02 10:22:17;;;;;;;14.18;6.50;;;;;;;4.48;100.00;98973.03;5053132;28;20049;-87
2022/12/02 10:24:42;;;;;;;13.70;7.18;;;;;;;4.39;100.00;98948.91;5039469;28;20030;-72
2022/12/02 10:27:29;;;;;;;12.20;6.68;;;;;;;4.59;100.00;98970.94;5033751;28;20396;-87
2022/12/02 10:30:25;;;;;;;19.45;6.60;;;;;;;4.46;100.00;98932.19;5034163;28;20013;-86
2022/12/02 10:33:01;;;;;;;13.13;6.40;;;;;;;4.65;100.00;98968.59;5001822;28;20508;-75
2022/12/02 10:35:41;;;;;;;11.18;5.70;;;;;;;4.54;100.00;98946.47;5033978;28;20041;-84
2022/12/02 10:38:28;;;;;;;11.45;5.63;;;;;;;4.52;100.00;98937.72;5034881;28;20066;-79
2022/12/02 10:41:23;;;;;;;12.43;5.82;;;;;;;4.69;100.00;98943.16;5031281;28;20483;-76
2022/12/02 10:44:00;;;;;;;10.60;5.80;;;;;;;4.69;100.00;98948.50;5015904;28;20515;-79
2022/12/02 10:46:26;;;;;;;11.23;5.97;;;;;;;4.82;100.00;98955.09;5020099;28;20056;-72
2022/12/02 10:52:14;;;;;;;9.82;5.07;;;;;;;4.61;100.00;98935.91;5032253;28;20040;-72
2022/12/02 10:54:45;;;;;;;11.48;5.50;;;;;;;4.74;100.00;98936.31;5029321;28;20734;-73
2022/12/02 10:57:17;;;;;;;11.27;5.75;;;;;;;4.68;100.00;98922.72;5027194;28;20032;-73
2022/12/02 10:59:42;;;;;;;10.52;5.43;;;;;;;4.68;100.00;98930.75;5029792;28;20018;-76
2022/12/02 11:02:18;;;;;;;9.60;5.60;;;;;;;4.55;100.00;98924.00;5027118;28;20091;-73
2022/12/02 11:04:43;;;;;;;10.40;5.90;;;;;;;4.52;100.00;98916.31;5031216;28;20095;-73
2022/12/02 11:07:14;;;;;;;12.75;6.68;;;;;;;4.16;100.00;98870.94;5031670;28;20025;-75
2022/12/02 11:09:44;;;;;;;12.35;6.18;;;;;;;4.33;100.00;98911.22;5029021;28;20025;-75
2022/12/02 11:12:29;;;;;;;13.05;7.00;;;;;;;4.33;100.00;98925.44;5029186;28;20568;-76
2022/12/02 11:14:55;;;;;;;13.93;7.68;;;;;;;4.21;100.00;98907.97;5030732;28;20370;-76
2022/12/02 11:17:47;;;;;;;13.63;7.38;;;;;;;4.38;100.00;98924.97;5028087;28;20153;-76
2022/12/02 11:20:29;;;;;;;12.10;6.80;;;;;;;4.33;100.00;98905.84;5026955;28;20480;-75
2022/12/02 11:22:58;;;;;;;11.32;7.07;;;;;;;4.37;100.00;98920.59;5034376;28;20029;-78
2022/12/02 11:25:42;;;;;;;14.60;8.60;;;;;;;4.37;100.00;98917.91;5040113;28;20069;-78
2022/12/02 11:28:13;;;;;;;13.07;7.05;;;;;;;4.36;100.00;98911.72;5039042;28;20033;-82
2022/12/02 11:30:39;;;;;;;11.82;7.07;;;;;;;4.21;100.00;98880.34;5051072;28;20025;-82
2022/12/02 11:33:09;;;;;;;20.55;10.90;;;;;;;4.30;100.00;98906.19;5042019;28;20029;-75
2022/12/02 11:36:17;;;;;;;20.17;10.00;;;;;;;4.27;100.00;98914.50;5041931;28;20025;-77
2022/12/02 11:39:07;;;;;;;17.88;8.73;;;;;;;4.37;100.00;98907.19;5017672;28;20097;-81
2022/12/02 11:41:47;;;;;;;19.92;9.05;;;;;;;4.42;100.00;98909.41;4995658;28;20042;-82
2022/12/02 11:44:29;;;;;;;14.27;7.65;;;;;;;4.23;100.00;98868.47;5023922;28;20037;-80
2022/12/02 11:47:04;;;;;;;14.02;7.55;;;;;;;4.29;100.00;98869.66;5023877;28;20553;-75
2022/12/02 11:49:40;;;;;;;11.20;6.75;;;;;;;4.49;100.00;98892.53;5026301;28;20260;-80